createdAt,value
2017-03-10T00:00:01.849Z,0
2017-03-10T00:00:43.999Z,0
2017-03-10T00:01:26.665Z,0
2017-03-10T00:03:48.364Z,0
2017-03-10T00:04:30.976Z,0
2017-03-10T00:05:13.766Z,0
2017-03-10T00:05:56.138Z,0
2017-03-10T00:06:38.721Z,0
2017-03-10T00:07:20.861Z,0
2017-03-10T00:08:03.597Z,0
2017-03-10T00:08:45.363Z,0
2017-03-10T00:09:28.007Z,0
2017-03-10T00:10:10.748Z,0
2017-03-10T00:10:53.777Z,0
2017-03-10T00:11:35.891Z,0
2017-03-10T00:12:18.516Z,0
2017-03-10T00:13:00.845Z,0
2017-03-10T00:13:43.630Z,0
2017-03-10T00:14:26.328Z,0
2017-03-10T00:15:08.973Z,0
2017-03-10T00:15:51.446Z,0
2017-03-10T00:16:34.022Z,0
2017-03-10T00:17:16.519Z,0
2017-03-10T00:19:48.604Z,0
2017-03-10T00:20:30.499Z,0
2017-03-10T00:21:12.956Z,0
2017-03-10T00:21:55.701Z,0
2017-03-10T00:22:38.169Z,0
2017-03-10T00:23:20.743Z,0
2017-03-10T00:24:03.744Z,0
2017-03-10T00:24:46.405Z,0
2017-03-10T00:25:28.611Z,0
2017-03-10T00:26:11.257Z,0
2017-03-10T00:28:33.248Z,0
2017-03-10T00:34:55.620Z,0
2017-03-10T00:35:38.081Z,0
2017-03-10T00:37:59.856Z,0
2017-03-10T00:38:42.403Z,0
2017-03-10T00:39:25.295Z,0
2017-03-10T00:40:07.953Z,0
2017-03-10T00:40:50.382Z,0
2017-03-10T00:41:32.895Z,0
2017-03-10T00:42:15.480Z,0
2017-03-10T00:44:16.030Z,0
2017-03-10T00:44:58.807Z,0
2017-03-10T00:45:41.507Z,0
2017-03-10T00:47:57.914Z,0
2017-03-10T00:48:39.721Z,0
2017-03-10T00:49:21.774Z,0
2017-03-10T00:51:22.757Z,0
2017-03-10T00:52:05.387Z,0
2017-03-10T00:52:47.502Z,0
2017-03-10T00:53:30.366Z,0
2017-03-10T00:55:46.844Z,0
2017-03-10T00:56:29.857Z,0
2017-03-10T00:59:07.757Z,0
2017-03-10T00:59:49.907Z,0
2017-03-10T01:00:32.371Z,0
2017-03-10T01:01:14.883Z,0
2017-03-10T01:01:57.230Z,0
2017-03-10T01:02:39.930Z,0
2017-03-10T01:03:22.059Z,0
2017-03-10T01:07:55.782Z,0
2017-03-10T01:08:38.134Z,0
2017-03-10T01:11:10.445Z,0
2017-03-10T01:11:52.975Z,0
2017-03-10T01:12:35.233Z,0
2017-03-10T01:13:17.718Z,0
2017-03-10T01:14:00.398Z,0
2017-03-10T01:14:42.312Z,0
2017-03-10T01:17:03.937Z,0
2017-03-10T01:17:46.623Z,0
2017-03-10T01:18:29.014Z,0
2017-03-10T01:19:11.391Z,0
2017-03-10T01:19:53.895Z,0
2017-03-10T01:20:35.929Z,0
2017-03-10T01:21:18.191Z,0
2017-03-10T01:22:00.600Z,0
2017-03-10T01:22:43.217Z,0
2017-03-10T01:23:25.436Z,0
2017-03-10T01:24:08.027Z,0
2017-03-10T01:24:50.909Z,0
2017-03-10T01:27:28.354Z,0
2017-03-10T01:28:11.165Z,0
2017-03-10T01:28:53.682Z,0
2017-03-10T01:29:36.249Z,0
2017-03-10T01:30:19.078Z,0
2017-03-10T01:31:01.441Z,0
2017-03-10T01:31:44.207Z,0
2017-03-10T01:32:26.539Z,0
2017-03-10T01:33:08.716Z,0
2017-03-10T01:33:51.261Z,0
2017-03-10T01:34:33.958Z,0
2017-03-10T01:35:16.501Z,0
2017-03-10T01:35:58.370Z,0
2017-03-10T01:36:40.521Z,0
2017-03-10T01:37:23.033Z,0
2017-03-10T01:38:05.661Z,0
2017-03-10T01:38:48.317Z,0
2017-03-10T01:39:31.079Z,0
2017-03-10T01:40:13.341Z,0
2017-03-10T01:40:55.937Z,0
2017-03-10T01:41:38.410Z,0
2017-03-10T01:43:54.570Z,0
2017-03-10T01:45:55.086Z,0
2017-03-10T01:46:37.084Z,0
2017-03-10T01:47:18.732Z,0
2017-03-10T01:48:01.180Z,0
2017-03-10T01:48:43.537Z,0
2017-03-10T01:49:26.182Z,0
2017-03-10T01:51:48.290Z,0
2017-03-10T01:52:30.677Z,0
2017-03-10T01:55:02.482Z,0
2017-03-10T01:55:44.952Z,0
2017-03-10T01:56:27.487Z,0
2017-03-10T01:57:09.797Z,0
2017-03-10T01:57:52.333Z,0
2017-03-10T01:58:34.360Z,0
2017-03-10T01:59:16.939Z,0
2017-03-10T02:01:31.543Z,0
2017-03-10T02:02:12.069Z,0
2017-03-10T02:02:52.594Z,0
2017-03-10T02:03:33.146Z,0
2017-03-10T02:04:13.667Z,0
2017-03-10T02:04:54.197Z,0
2017-03-10T02:05:34.723Z,0
2017-03-10T02:06:15.249Z,0
2017-03-10T02:06:55.777Z,0
2017-03-10T02:07:36.311Z,0
2017-03-10T02:08:16.822Z,0
2017-03-10T02:08:57.353Z,0
2017-03-10T02:09:37.910Z,0
2017-03-10T02:10:18.414Z,0
2017-03-10T02:10:58.936Z,0
2017-03-10T02:11:39.464Z,0
2017-03-10T02:12:19.999Z,0
2017-03-10T02:13:00.530Z,0
2017-03-10T02:13:41.053Z,0
2017-03-10T02:14:21.587Z,0
2017-03-10T02:15:02.114Z,0
2017-03-10T02:15:42.698Z,0
2017-03-10T02:16:23.228Z,0
2017-03-10T02:17:03.766Z,0
2017-03-10T02:17:44.305Z,0
2017-03-10T02:18:24.825Z,0
2017-03-10T02:19:05.350Z,0
2017-03-10T02:19:45.887Z,0
2017-03-10T02:20:26.405Z,0
2017-03-10T02:21:06.931Z,0
2017-03-10T02:21:47.452Z,0
2017-03-10T02:22:28.004Z,0
2017-03-10T02:23:08.539Z,0
2017-03-10T02:23:49.064Z,0
2017-03-10T02:24:29.599Z,0
2017-03-10T02:25:10.129Z,0
2017-03-10T02:25:50.652Z,0
2017-03-10T02:26:31.182Z,0
2017-03-10T02:27:11.708Z,0
2017-03-10T02:27:52.236Z,0
2017-03-10T02:28:32.777Z,0
2017-03-10T02:29:13.295Z,0
2017-03-10T02:29:54.644Z,0
2017-03-10T02:30:35.182Z,0
2017-03-10T02:31:15.715Z,0
2017-03-10T02:31:56.245Z,0
2017-03-10T02:32:36.799Z,0
2017-03-10T02:33:17.327Z,0
2017-03-10T02:33:57.863Z,0
2017-03-10T02:34:38.393Z,0
2017-03-10T02:35:18.933Z,0
2017-03-10T02:35:59.457Z,0
2017-03-10T02:36:40.002Z,0
2017-03-10T02:37:20.545Z,0
2017-03-10T02:38:01.057Z,0
2017-03-10T02:38:41.588Z,0
2017-03-10T02:39:22.118Z,0
2017-03-10T02:40:02.755Z,0
2017-03-10T02:40:43.284Z,0
2017-03-10T02:41:23.807Z,0
2017-03-10T02:42:04.343Z,0
2017-03-10T02:42:44.874Z,0
2017-03-10T02:43:25.385Z,0
2017-03-10T02:44:05.920Z,0
2017-03-10T02:44:46.451Z,0
2017-03-10T02:45:26.997Z,0
2017-03-10T02:46:07.522Z,0
2017-03-10T02:46:48.122Z,0
2017-03-10T02:47:28.656Z,0
2017-03-10T02:48:09.188Z,0
2017-03-10T02:48:49.712Z,0
2017-03-10T02:49:30.248Z,0
2017-03-10T02:50:10.781Z,0
2017-03-10T02:50:51.312Z,0
2017-03-10T02:51:31.852Z,0
2017-03-10T02:52:12.380Z,0
2017-03-10T02:52:52.915Z,0
2017-03-10T02:53:33.443Z,0
2017-03-10T02:54:13.964Z,0
2017-03-10T02:54:54.499Z,0
2017-03-10T02:55:35.034Z,0
2017-03-10T02:56:15.566Z,0
2017-03-10T02:56:56.097Z,0
2017-03-10T02:57:36.627Z,0
2017-03-10T02:58:17.155Z,0
2017-03-10T02:58:57.687Z,0
2017-03-10T02:59:38.217Z,0
2017-03-10T03:00:18.748Z,0
2017-03-10T03:00:59.280Z,0
2017-03-10T03:01:39.811Z,0
2017-03-10T03:02:20.339Z,0
2017-03-10T03:03:00.872Z,0
2017-03-10T03:03:41.420Z,0
2017-03-10T03:04:21.918Z,0
2017-03-10T03:05:02.457Z,0
2017-03-10T03:05:42.991Z,0
2017-03-10T03:06:23.521Z,0
2017-03-10T03:07:04.040Z,0
2017-03-10T03:07:44.568Z,0
2017-03-10T03:08:25.101Z,0
2017-03-10T03:09:05.634Z,0
2017-03-10T03:09:46.173Z,0
2017-03-10T03:10:26.706Z,0
2017-03-10T03:11:07.232Z,0
2017-03-10T03:11:47.760Z,0
2017-03-10T03:12:28.277Z,0
2017-03-10T03:13:08.797Z,0
2017-03-10T03:13:49.329Z,0
2017-03-10T03:14:29.861Z,0
2017-03-10T03:15:10.416Z,0
2017-03-10T03:15:50.954Z,0
2017-03-10T03:16:31.492Z,0
2017-03-10T03:17:12.023Z,0
2017-03-10T03:17:52.538Z,0
2017-03-10T03:18:33.066Z,0
2017-03-10T03:19:13.615Z,0
2017-03-10T03:19:54.147Z,0
2017-03-10T03:20:34.680Z,0
2017-03-10T03:21:15.220Z,0
2017-03-10T03:21:55.757Z,0
2017-03-10T03:22:36.270Z,0
2017-03-10T03:23:16.800Z,0
2017-03-10T03:23:57.333Z,0
2017-03-10T03:24:37.870Z,0
2017-03-10T03:25:18.399Z,0
2017-03-10T03:25:58.931Z,0
2017-03-10T03:26:39.469Z,0
2017-03-10T03:27:20.000Z,0
2017-03-10T03:28:00.535Z,0
2017-03-10T03:28:41.059Z,0
2017-03-10T03:29:21.584Z,0
2017-03-10T03:30:02.121Z,0
2017-03-10T03:30:42.652Z,0
2017-03-10T03:31:23.182Z,0
2017-03-10T03:32:03.717Z,0
2017-03-10T03:32:44.249Z,0
2017-03-10T03:33:24.777Z,0
2017-03-10T03:34:05.312Z,0
2017-03-10T03:34:45.850Z,0
2017-03-10T03:35:26.368Z,0
2017-03-10T03:36:06.900Z,0
2017-03-10T03:36:47.428Z,0
2017-03-10T03:37:27.962Z,0
2017-03-10T03:38:08.493Z,0
2017-03-10T03:38:49.020Z,0
2017-03-10T03:39:29.551Z,0
2017-03-10T03:40:10.082Z,0
2017-03-10T03:40:50.612Z,0
2017-03-10T03:41:31.154Z,0
2017-03-10T03:42:11.692Z,0
2017-03-10T03:42:52.231Z,0
2017-03-10T03:43:32.762Z,0
2017-03-10T03:44:13.291Z,0
2017-03-10T03:44:53.825Z,0
2017-03-10T03:45:34.356Z,0
2017-03-10T03:46:14.894Z,0
2017-03-10T03:46:55.425Z,0
2017-03-10T03:47:35.946Z,0
2017-03-10T03:48:16.510Z,0
2017-03-10T03:48:57.010Z,0
2017-03-10T03:49:37.544Z,0
2017-03-10T03:50:18.076Z,0
2017-03-10T03:50:58.609Z,0
2017-03-10T03:51:39.144Z,0
2017-03-10T03:52:19.678Z,0
2017-03-10T03:53:00.210Z,0
2017-03-10T03:53:40.744Z,0
2017-03-10T03:54:21.279Z,0
2017-03-10T03:55:01.812Z,0
2017-03-10T03:55:42.344Z,0
2017-03-10T03:56:22.878Z,0
2017-03-10T03:57:03.413Z,0
2017-03-10T03:57:43.943Z,0
2017-03-10T03:58:24.479Z,0
2017-03-10T03:59:05.004Z,0
2017-03-10T03:59:45.538Z,0
2017-03-10T04:00:26.071Z,0
2017-03-10T04:01:06.604Z,0
2017-03-10T04:01:47.136Z,0
2017-03-10T04:02:27.669Z,0
2017-03-10T04:03:08.201Z,0
2017-03-10T04:03:48.733Z,0
2017-03-10T04:04:29.267Z,0
2017-03-10T04:05:09.795Z,0
2017-03-10T04:05:50.327Z,0
2017-03-10T04:06:30.858Z,0
2017-03-10T04:07:11.392Z,0
2017-03-10T04:07:51.928Z,0
2017-03-10T04:08:32.458Z,0
2017-03-10T04:09:12.994Z,0
2017-03-10T04:09:53.525Z,0
2017-03-10T04:10:34.056Z,0
2017-03-10T04:11:14.606Z,0
2017-03-10T04:11:55.145Z,0
2017-03-10T04:12:35.676Z,0
2017-03-10T04:13:16.211Z,0
2017-03-10T04:13:56.742Z,0
2017-03-10T04:14:37.275Z,0
2017-03-10T04:15:17.811Z,0
2017-03-10T04:15:58.348Z,0
2017-03-10T04:16:38.880Z,0
2017-03-10T04:17:19.413Z,0
2017-03-10T04:17:59.973Z,0
2017-03-10T04:18:40.475Z,0
2017-03-10T04:19:21.007Z,0
2017-03-10T04:20:01.541Z,0
2017-03-10T04:20:42.078Z,0
2017-03-10T04:21:22.659Z,0
2017-03-10T04:22:03.191Z,0
2017-03-10T04:22:43.721Z,0
2017-03-10T04:23:24.254Z,0
2017-03-10T04:24:04.784Z,0
2017-03-10T04:24:45.310Z,0
2017-03-10T04:25:25.838Z,0
2017-03-10T04:26:06.373Z,0
2017-03-10T04:26:46.903Z,0
2017-03-10T04:27:27.440Z,0
2017-03-10T04:28:07.969Z,0
2017-03-10T04:28:48.504Z,0
2017-03-10T04:29:29.026Z,0
2017-03-10T04:30:09.561Z,0
2017-03-10T04:30:50.084Z,0
2017-03-10T04:31:30.614Z,0
2017-03-10T04:32:11.133Z,0
2017-03-10T04:32:51.675Z,0
2017-03-10T04:33:32.205Z,0
2017-03-10T04:34:12.734Z,0
2017-03-10T04:34:53.267Z,0
2017-03-10T04:35:33.800Z,0
2017-03-10T04:36:14.327Z,0
2017-03-10T04:36:54.847Z,0
2017-03-10T04:37:35.376Z,0
2017-03-10T04:38:16.861Z,0
2017-03-10T04:38:58.119Z,0
2017-03-10T04:39:38.646Z,0
2017-03-10T04:40:19.176Z,0
2017-03-10T04:40:59.698Z,0
2017-03-10T04:41:40.228Z,0
2017-03-10T04:42:20.760Z,0
2017-03-10T04:43:01.320Z,0
2017-03-10T04:43:41.836Z,0
2017-03-10T04:44:22.374Z,0
2017-03-10T04:45:02.895Z,0
2017-03-10T04:45:43.423Z,0
2017-03-10T04:46:23.958Z,0
2017-03-10T04:47:04.490Z,0
2017-03-10T04:47:45.039Z,0
2017-03-10T04:48:25.571Z,0
2017-03-10T04:49:06.164Z,0
2017-03-10T04:49:46.688Z,0
2017-03-10T04:50:27.211Z,0
2017-03-10T04:51:07.739Z,0
2017-03-10T04:51:48.273Z,0
2017-03-10T04:52:28.813Z,0
2017-03-10T04:53:09.348Z,0
2017-03-10T04:53:49.881Z,0
2017-03-10T04:54:30.415Z,0
2017-03-10T04:55:10.941Z,0
2017-03-10T04:55:51.473Z,0
2017-03-10T04:56:31.997Z,0
2017-03-10T04:57:12.529Z,0
2017-03-10T04:57:53.053Z,0
2017-03-10T04:58:33.585Z,0
2017-03-10T04:59:14.117Z,0
2017-03-10T04:59:54.653Z,0
2017-03-10T05:00:35.163Z,0
2017-03-10T05:01:15.692Z,0
2017-03-10T05:01:56.227Z,0
2017-03-10T05:02:36.747Z,0
2017-03-10T05:03:17.304Z,0
2017-03-10T05:03:57.835Z,0
2017-03-10T05:04:38.371Z,0
2017-03-10T05:05:18.898Z,0
2017-03-10T05:05:59.432Z,0
2017-03-10T05:06:39.965Z,0
2017-03-10T05:07:20.567Z,0
2017-03-10T05:08:01.105Z,0
2017-03-10T05:08:41.656Z,0
2017-03-10T05:09:22.181Z,0
2017-03-10T05:10:02.704Z,0
2017-03-10T05:10:43.227Z,0
2017-03-10T05:11:23.759Z,0
2017-03-10T05:12:04.291Z,0
2017-03-10T05:12:44.828Z,0
2017-03-10T05:13:25.350Z,0
2017-03-10T05:14:05.893Z,0
2017-03-10T05:14:46.425Z,0
2017-03-10T05:15:26.957Z,0
2017-03-10T05:16:07.486Z,0
2017-03-10T05:16:48.007Z,0
2017-03-10T05:17:28.547Z,0
2017-03-10T05:18:09.085Z,0
2017-03-10T05:18:49.618Z,0
2017-03-10T05:19:30.148Z,0
2017-03-10T05:20:10.685Z,0
2017-03-10T05:20:51.216Z,0
2017-03-10T05:21:31.749Z,0
2017-03-10T05:22:12.280Z,0
2017-03-10T05:22:52.819Z,0
2017-03-10T05:23:33.346Z,0
2017-03-10T05:24:13.888Z,0
2017-03-10T05:24:54.411Z,0
2017-03-10T05:25:34.954Z,0
2017-03-10T05:26:15.500Z,0
2017-03-10T05:26:56.026Z,0
2017-03-10T05:27:36.562Z,0
2017-03-10T05:28:17.092Z,0
2017-03-10T05:28:57.628Z,0
2017-03-10T05:29:38.167Z,0
2017-03-10T05:30:18.685Z,4
2017-03-10T05:30:59.213Z,4
2017-03-10T05:31:39.745Z,0
2017-03-10T05:32:20.631Z,0
2017-03-10T05:33:01.544Z,4
2017-03-10T05:33:42.089Z,4
2017-03-10T05:34:22.627Z,4
2017-03-10T05:35:03.170Z,4
2017-03-10T05:35:43.679Z,8
2017-03-10T05:36:24.297Z,4
2017-03-10T05:37:04.763Z,4
2017-03-10T05:37:45.920Z,8
2017-03-10T05:38:26.455Z,8
2017-03-10T05:39:07.707Z,8
2017-03-10T05:39:47.947Z,12
2017-03-10T05:40:28.462Z,12
2017-03-10T05:41:08.994Z,12
2017-03-10T05:41:49.533Z,16
2017-03-10T05:42:30.068Z,16
2017-03-10T05:43:10.606Z,20
2017-03-10T05:43:51.140Z,20
2017-03-10T05:44:31.665Z,20
2017-03-10T05:45:12.200Z,20
2017-03-10T05:45:52.769Z,28
2017-03-10T05:46:33.296Z,28
2017-03-10T05:47:13.817Z,28
2017-03-10T05:47:54.349Z,28
2017-03-10T05:48:34.873Z,32
2017-03-10T05:49:15.406Z,32
2017-03-10T05:49:55.948Z,36
2017-03-10T05:50:36.485Z,40
2017-03-10T05:51:17.014Z,40
2017-03-10T05:51:57.554Z,40
2017-03-10T05:52:38.077Z,44
2017-03-10T05:53:18.609Z,48
2017-03-10T05:53:59.143Z,56
2017-03-10T05:54:39.677Z,60
2017-03-10T05:55:20.212Z,64
2017-03-10T05:56:00.727Z,72
2017-03-10T05:56:41.256Z,76
2017-03-10T05:57:21.779Z,80
2017-03-10T05:58:02.322Z,84
2017-03-10T05:58:42.851Z,92
2017-03-10T05:59:23.378Z,96
2017-03-10T06:00:03.911Z,104
2017-03-10T06:00:44.445Z,112
2017-03-10T06:01:24.973Z,120
2017-03-10T06:02:05.502Z,124
2017-03-10T06:02:46.041Z,136
2017-03-10T06:03:26.567Z,140
2017-03-10T06:04:07.107Z,148
2017-03-10T06:04:47.639Z,152
2017-03-10T06:05:28.175Z,160
2017-03-10T06:06:08.734Z,168
2017-03-10T06:06:49.254Z,184
2017-03-10T06:09:29.000Z,208
2017-03-10T06:10:09.519Z,216
2017-03-10T06:10:50.057Z,220
2017-03-10T06:11:30.587Z,228
2017-03-10T06:12:11.121Z,232
2017-03-10T06:12:51.675Z,244
2017-03-10T06:13:32.238Z,260
2017-03-10T06:14:12.760Z,268
2017-03-10T06:14:53.302Z,276
2017-03-10T06:15:33.822Z,284
2017-03-10T06:16:14.349Z,292
2017-03-10T06:16:54.881Z,312
2017-03-10T06:17:35.423Z,324
2017-03-10T06:18:15.933Z,324
2017-03-10T06:18:56.464Z,328
2017-03-10T06:19:36.986Z,324
2017-03-10T06:20:17.525Z,320
2017-03-10T06:20:58.050Z,324
2017-03-10T06:21:38.609Z,336
2017-03-10T06:22:19.141Z,348
2017-03-10T06:22:59.669Z,364
2017-03-10T06:23:40.194Z,384
2017-03-10T06:24:20.723Z,412
2017-03-10T06:25:01.246Z,436
2017-03-10T06:25:41.799Z,452
2017-03-10T06:26:22.308Z,472
2017-03-10T06:27:02.883Z,512
2017-03-10T06:27:43.418Z,552
2017-03-10T06:28:23.938Z,616
2017-03-10T06:29:04.469Z,644
2017-03-10T06:29:44.988Z,672
2017-03-10T06:30:25.535Z,696
2017-03-10T06:31:06.071Z,716
2017-03-10T06:31:46.602Z,784
2017-03-10T06:32:27.134Z,836
2017-03-10T06:33:07.639Z,808
2017-03-10T06:33:48.170Z,796
2017-03-10T06:34:28.702Z,792
2017-03-10T06:35:09.214Z,752
2017-03-10T06:35:49.727Z,728
2017-03-10T06:36:30.259Z,744
2017-03-10T06:37:10.795Z,812
2017-03-10T06:37:51.324Z,784
2017-03-10T06:38:31.846Z,760
2017-03-10T06:39:12.377Z,740
2017-03-10T06:39:52.907Z,756
2017-03-10T06:40:33.437Z,784
2017-03-10T06:41:13.987Z,800
2017-03-10T06:41:54.493Z,868
2017-03-10T06:42:35.027Z,928
2017-03-10T06:43:15.580Z,960
2017-03-10T06:43:56.110Z,1032
2017-03-10T06:44:36.644Z,1100
2017-03-10T06:45:17.172Z,1160
2017-03-10T06:45:57.725Z,1268
2017-03-10T06:46:38.256Z,1276
2017-03-10T06:47:18.785Z,1368
2017-03-10T06:47:59.318Z,1352
2017-03-10T06:48:39.847Z,1332
2017-03-10T06:49:20.375Z,1360
2017-03-10T06:50:00.904Z,1396
2017-03-10T06:50:41.434Z,1356
2017-03-10T06:51:21.967Z,1240
2017-03-10T06:52:02.500Z,1180
2017-03-10T06:52:43.036Z,1216
2017-03-10T06:53:23.703Z,1268
2017-03-10T06:54:04.395Z,1340
2017-03-10T06:54:44.913Z,1392
2017-03-10T06:55:25.443Z,1292
2017-03-10T06:56:05.967Z,1288
2017-03-10T06:56:46.500Z,1276
2017-03-10T06:57:27.010Z,1192
2017-03-10T06:58:07.539Z,1124
2017-03-10T06:58:48.069Z,1020
2017-03-10T06:59:28.599Z,984
2017-03-10T07:00:09.132Z,936
2017-03-10T07:00:49.658Z,908
2017-03-10T07:01:30.189Z,900
2017-03-10T07:02:10.718Z,944
2017-03-10T07:02:51.246Z,984
2017-03-10T07:03:31.780Z,1040
2017-03-10T07:04:12.310Z,1112
2017-03-10T07:04:52.898Z,1044
2017-03-10T07:05:33.431Z,1032
2017-03-10T07:06:13.965Z,1120
2017-03-10T07:06:54.494Z,1132
2017-03-10T07:07:35.024Z,1280
2017-03-10T07:08:15.549Z,1468
2017-03-10T07:08:56.081Z,1640
2017-03-10T07:09:36.617Z,1604
2017-03-10T07:10:17.145Z,1556
2017-03-10T07:10:57.679Z,1532
2017-03-10T07:11:38.210Z,1408
2017-03-10T07:12:18.744Z,1456
2017-03-10T07:12:59.278Z,1444
2017-03-10T07:13:39.812Z,1372
2017-03-10T07:14:20.338Z,1484
2017-03-10T07:15:00.869Z,1572
2017-03-10T07:15:41.404Z,1572
2017-03-10T07:16:21.936Z,1564
2017-03-10T07:17:02.463Z,1548
2017-03-10T07:17:42.993Z,1652
2017-03-10T07:18:23.529Z,1680
2017-03-10T07:19:04.061Z,1860
2017-03-10T07:19:44.601Z,2024
2017-03-10T07:20:25.116Z,1896
2017-03-10T07:21:06.001Z,1744
2017-03-10T07:21:46.218Z,1660
2017-03-10T07:22:26.740Z,1688
2017-03-10T07:23:07.270Z,1700
2017-03-10T07:23:47.811Z,1672
2017-03-10T07:24:28.344Z,1740
2017-03-10T07:25:08.876Z,1724
2017-03-10T07:25:49.409Z,1888
2017-03-10T07:26:29.944Z,2032
2017-03-10T07:27:10.474Z,2124
2017-03-10T07:27:51.014Z,2192
2017-03-10T07:28:31.551Z,2040
2017-03-10T07:29:12.083Z,1892
2017-03-10T07:29:52.623Z,1848
2017-03-10T07:30:33.164Z,1844
2017-03-10T07:31:13.689Z,1836
2017-03-10T07:31:54.224Z,2028
2017-03-10T07:32:34.754Z,2284
2017-03-10T07:33:15.293Z,2356
2017-03-10T07:33:55.830Z,2444
2017-03-10T07:34:36.356Z,2632
2017-03-10T07:35:16.873Z,2676
2017-03-10T07:35:57.418Z,3036
2017-03-10T07:36:37.945Z,3128
2017-03-10T07:37:18.472Z,3284
2017-03-10T07:37:59.088Z,3268
2017-03-10T07:38:39.613Z,3108
2017-03-10T07:39:20.148Z,3056
2017-03-10T07:40:00.675Z,3192
2017-03-10T07:40:41.198Z,3236
2017-03-10T07:41:21.733Z,3220
2017-03-10T07:42:02.297Z,3264
2017-03-10T07:42:42.790Z,3212
2017-03-10T07:43:23.363Z,3240
2017-03-10T07:44:03.884Z,3236
2017-03-10T07:44:44.463Z,3352
2017-03-10T07:45:25.004Z,3532
2017-03-10T07:46:05.525Z,3724
2017-03-10T07:46:46.056Z,3816
2017-03-10T07:47:26.592Z,4104
2017-03-10T07:48:07.123Z,4204
2017-03-10T07:48:47.673Z,4148
2017-03-10T07:49:28.187Z,4088
2017-03-10T07:50:08.718Z,4200
2017-03-10T07:50:49.247Z,4352
2017-03-10T07:51:29.786Z,4160
2017-03-10T07:52:10.316Z,4028
2017-03-10T07:52:50.833Z,3960
2017-03-10T07:53:31.370Z,3944
2017-03-10T07:54:11.896Z,3900
2017-03-10T07:54:52.432Z,3908
2017-03-10T07:55:32.966Z,4004
2017-03-10T07:56:13.498Z,3996
2017-03-10T07:56:54.017Z,3844
2017-03-10T07:57:34.548Z,3516
2017-03-10T07:58:15.087Z,3344
2017-03-10T07:58:55.637Z,3224
2017-03-10T07:59:36.154Z,3116
2017-03-10T08:00:16.684Z,3216
2017-03-10T08:00:57.215Z,3416
2017-03-10T08:01:37.744Z,3492
2017-03-10T08:02:18.316Z,3728
2017-03-10T08:02:58.854Z,3720
2017-03-10T08:03:39.500Z,3652
2017-03-10T08:04:20.319Z,3676
2017-03-10T08:05:00.697Z,3760
2017-03-10T08:05:41.232Z,3756
2017-03-10T08:06:21.762Z,4036
2017-03-10T08:07:02.297Z,4356
2017-03-10T08:07:42.832Z,4496
2017-03-10T08:08:23.364Z,4744
2017-03-10T08:09:03.935Z,5072
2017-03-10T08:09:44.581Z,5320
2017-03-10T08:10:25.117Z,5196
2017-03-10T08:11:05.656Z,5156
2017-03-10T08:11:46.194Z,5200
2017-03-10T08:12:26.734Z,4968
2017-03-10T08:13:07.269Z,4800
2017-03-10T08:13:47.800Z,4712
2017-03-10T08:14:28.331Z,4636
2017-03-10T08:15:08.862Z,4528
2017-03-10T08:15:49.398Z,4544
2017-03-10T08:16:29.925Z,4440
2017-03-10T08:17:10.483Z,4460
2017-03-10T08:17:50.991Z,4596
2017-03-10T08:18:32.379Z,4660
2017-03-10T08:19:12.927Z,4700
2017-03-10T08:19:53.450Z,4588
2017-03-10T08:20:34.028Z,4696
2017-03-10T08:21:14.649Z,4688
2017-03-10T08:21:55.189Z,4632
2017-03-10T08:22:35.729Z,4864
2017-03-10T08:23:16.262Z,4856
2017-03-10T08:23:56.824Z,5080
2017-03-10T08:24:37.354Z,5192
2017-03-10T08:25:17.889Z,5280
2017-03-10T08:25:58.444Z,5720
2017-03-10T08:26:38.972Z,5604
2017-03-10T08:27:19.496Z,5216
2017-03-10T08:28:00.030Z,4824
2017-03-10T08:28:40.557Z,4416
2017-03-10T08:29:21.092Z,4436
2017-03-10T08:30:01.625Z,4424
2017-03-10T08:30:42.154Z,4556
2017-03-10T08:31:22.687Z,4960
2017-03-10T08:32:03.221Z,5184
2017-03-10T08:32:43.742Z,5504
2017-03-10T08:33:24.279Z,5444
2017-03-10T08:34:04.810Z,5576
2017-03-10T08:34:45.344Z,5348
2017-03-10T08:35:25.880Z,4792
2017-03-10T08:36:06.412Z,4508
2017-03-10T08:36:46.935Z,4500
2017-03-10T08:37:27.464Z,4560
2017-03-10T08:38:07.996Z,4784
2017-03-10T08:38:48.533Z,5232
2017-03-10T08:39:29.066Z,5408
2017-03-10T08:40:09.595Z,5420
2017-03-10T08:40:50.144Z,5324
2017-03-10T08:41:30.687Z,5276
2017-03-10T08:42:11.213Z,5440
2017-03-10T08:42:51.837Z,5636
2017-03-10T08:43:32.367Z,5424
2017-03-10T08:44:12.900Z,5332
2017-03-10T08:44:53.426Z,4624
2017-03-10T08:45:33.960Z,4376
2017-03-10T08:46:14.495Z,4412
2017-03-10T08:46:55.029Z,4204
2017-03-10T08:47:35.571Z,4000
2017-03-10T08:48:16.102Z,4460
2017-03-10T08:48:56.643Z,4872
2017-03-10T08:49:37.179Z,5196
2017-03-10T08:50:17.712Z,5476
2017-03-10T08:50:58.240Z,5588
2017-03-10T08:51:38.777Z,5416
2017-03-10T08:52:19.311Z,5268
2017-03-10T08:52:59.839Z,4816
2017-03-10T08:53:40.370Z,4428
2017-03-10T08:54:20.910Z,4256
2017-03-10T08:55:01.441Z,3960
2017-03-10T08:55:41.982Z,3824
2017-03-10T08:56:22.517Z,3840
2017-03-10T08:57:03.057Z,6292
2017-03-10T08:57:43.589Z,3516
2017-03-10T08:58:24.122Z,2928
2017-03-10T08:59:04.655Z,2684
2017-03-10T08:59:45.232Z,2528
2017-03-10T09:00:25.766Z,2532
2017-03-10T09:01:06.299Z,2620
2017-03-10T09:01:46.883Z,2956
2017-03-10T09:02:27.462Z,3312
2017-03-10T09:03:07.975Z,3736
2017-03-10T09:03:48.507Z,4200
2017-03-10T09:04:29.037Z,5028
2017-03-10T09:05:09.570Z,5752
2017-03-10T09:05:50.133Z,6132
2017-03-10T09:06:30.667Z,6228
2017-03-10T09:07:11.211Z,6780
2017-03-10T09:07:51.748Z,7232
2017-03-10T09:08:32.320Z,8848
2017-03-10T09:09:12.853Z,12764
2017-03-10T09:09:53.401Z,6028
2017-03-10T09:10:33.937Z,5912
2017-03-10T09:11:14.478Z,6808
2017-03-10T09:11:55.015Z,21312
2017-03-10T09:12:35.545Z,30240
2017-03-10T09:13:16.073Z,25888
2017-03-10T09:13:56.605Z,32064
2017-03-10T09:14:37.181Z,38944
2017-03-10T09:15:17.694Z,38720
2017-03-10T09:15:58.232Z,39328
2017-03-10T09:16:38.767Z,46048
2017-03-10T09:17:19.299Z,47744
2017-03-10T09:18:00.554Z,47808
2017-03-10T09:18:43.620Z,47200
2017-03-10T09:19:26.872Z,46720
2017-03-10T09:20:09.168Z,12888
2017-03-10T09:20:51.719Z,8512
2017-03-10T09:21:34.610Z,7936
2017-03-10T09:22:17.702Z,8832
2017-03-10T09:22:59.753Z,10684
2017-03-10T09:23:40.296Z,9808
2017-03-10T09:24:20.829Z,8304
2017-03-10T09:25:01.373Z,7644
2017-03-10T09:25:41.904Z,6992
2017-03-10T09:26:22.469Z,6172
2017-03-10T09:27:03.002Z,5756
2017-03-10T09:27:43.535Z,5776
2017-03-10T09:28:24.074Z,5436
2017-03-10T09:29:04.608Z,5012
2017-03-10T09:29:45.133Z,4664
2017-03-10T09:30:25.670Z,4592
2017-03-10T09:31:06.196Z,4764
2017-03-10T09:31:46.740Z,5340
2017-03-10T09:32:27.276Z,14860
2017-03-10T09:33:07.808Z,49856
2017-03-10T09:33:48.344Z,50656
2017-03-10T09:34:28.881Z,48736
2017-03-10T09:35:09.406Z,50304
2017-03-10T09:35:49.961Z,48288
2017-03-10T09:36:30.492Z,40416
2017-03-10T09:37:11.030Z,11544
2017-03-10T09:37:51.563Z,9092
2017-03-10T09:38:32.097Z,9560
2017-03-10T09:39:12.630Z,10428
2017-03-10T09:39:53.169Z,11820
2017-03-10T09:40:33.710Z,22176
2017-03-10T09:41:14.244Z,14672
2017-03-10T09:41:54.782Z,39360
2017-03-10T09:42:35.315Z,45440
2017-03-10T09:43:15.855Z,52256
2017-03-10T09:43:56.390Z,14144
2017-03-10T09:44:36.964Z,38464
2017-03-10T09:45:17.499Z,48608
2017-03-10T09:45:58.034Z,51328
2017-03-10T09:46:38.570Z,15252
2017-03-10T09:47:19.102Z,55008
2017-03-10T09:47:59.638Z,14264
2017-03-10T09:48:40.173Z,11864
2017-03-10T09:49:20.706Z,12472
2017-03-10T09:50:01.243Z,11020
2017-03-10T09:50:41.790Z,9300
2017-03-10T09:51:22.331Z,8692
2017-03-10T09:52:02.870Z,8196
2017-03-10T09:52:43.449Z,7968
2017-03-10T09:53:23.995Z,8088
2017-03-10T09:54:04.527Z,8784
2017-03-10T09:54:45.071Z,9476
2017-03-10T09:55:25.622Z,9396
2017-03-10T09:56:06.161Z,8896
2017-03-10T09:56:46.698Z,8840
2017-03-10T09:57:27.233Z,9520
2017-03-10T09:58:07.800Z,37696
2017-03-10T09:58:48.334Z,14212
2017-03-10T09:59:28.872Z,10744
2017-03-10T10:00:09.412Z,7356
2017-03-10T10:00:49.950Z,6100
2017-03-10T10:01:30.483Z,5928
2017-03-10T10:02:11.016Z,5992
2017-03-10T10:02:51.555Z,5936
2017-03-10T10:03:32.116Z,6404
2017-03-10T10:04:12.626Z,6864
2017-03-10T10:04:53.161Z,6964
2017-03-10T10:05:33.703Z,6068
2017-03-10T10:06:14.244Z,6112
2017-03-10T10:06:54.801Z,7636
2017-03-10T10:07:35.321Z,9220
2017-03-10T10:08:15.852Z,14020
2017-03-10T10:08:56.389Z,21024
2017-03-10T10:09:36.922Z,55296
2017-03-10T10:10:17.457Z,24128
2017-03-10T10:10:57.986Z,51904
2017-03-10T10:11:38.534Z,12712
2017-03-10T10:12:19.074Z,43392
2017-03-10T10:12:59.605Z,42176
2017-03-10T10:13:40.144Z,45856
2017-03-10T10:14:20.681Z,52320